createdAt,value
2023-08-14T00:01:15.179Z,24.00
2023-08-14T00:03:42.817Z,24.00
2023-08-14T00:06:10.653Z,23.90
2023-08-14T00:08:38.423Z,24.00
2023-08-14T00:11:05.768Z,23.90
2023-08-14T00:13:49.868Z,23.80
2023-08-14T00:16:17.473Z,23.80
2023-08-14T00:18:45.364Z,23.80
2023-08-14T00:21:13.322Z,24.50
2023-08-14T00:23:40.879Z,23.80
2023-08-14T00:26:08.730Z,23.80
2023-08-14T00:28:36.110Z,23.80
2023-08-14T00:31:03.902Z,23.70
2023-08-14T00:33:31.386Z,24.30
2023-08-14T00:35:58.879Z,23.70
2023-08-14T00:38:26.205Z,23.70
2023-08-14T00:40:54.122Z,24.30
2023-08-14T00:43:23.585Z,23.60
2023-08-14T00:45:55.332Z,23.70
2023-08-14T00:48:24.360Z,23.60
2023-08-14T00:50:54.137Z,23.60
2023-08-14T00:53:22.738Z,24.20
2023-08-14T00:55:50.458Z,24.20
2023-08-14T00:58:18.146Z,24.20
2023-08-14T01:00:45.753Z,23.70
2023-08-14T01:03:14.002Z,23.70
2023-08-14T01:05:41.570Z,23.70
2023-08-14T01:08:09.095Z,24.10
2023-08-14T01:10:52.328Z,23.60
2023-08-14T01:13:29.605Z,24.00
2023-08-14T01:16:00.854Z,23.60
2023-08-14T01:18:30.175Z,24.10
2023-08-14T01:21:13.882Z,23.60
2023-08-14T01:24:13.074Z,23.50
2023-08-14T01:26:41.053Z,23.50
2023-08-14T01:29:08.953Z,23.70
2023-08-14T01:31:36.336Z,24.10
2023-08-14T01:34:03.968Z,24.10
2023-08-14T01:36:39.800Z,23.50
2023-08-14T01:39:10.937Z,23.50
2023-08-14T01:41:52.042Z,23.40
2023-08-14T01:44:23.037Z,23.40
2023-08-14T01:46:51.790Z,23.40
2023-08-14T01:49:20.651Z,23.80
2023-08-14T01:51:49.646Z,23.40
2023-08-14T01:54:17.348Z,23.40
2023-08-14T01:56:45.104Z,23.40
2023-08-14T01:59:12.533Z,23.30
2023-08-14T02:01:39.968Z,23.40
2023-08-14T02:04:08.771Z,23.80
2023-08-14T02:06:36.212Z,23.30
2023-08-14T02:09:04.475Z,23.30
2023-08-14T02:11:32.110Z,23.30
2023-08-14T02:13:59.642Z,23.20
2023-08-14T02:16:27.108Z,23.20
2023-08-14T02:18:54.547Z,23.80
2023-08-14T02:21:21.882Z,23.20
2023-08-14T02:23:51.179Z,23.10
2023-08-14T02:26:18.625Z,23.10
2023-08-14T02:28:46.578Z,23.10
2023-08-14T02:31:14.055Z,23.50
2023-08-14T02:33:41.529Z,23.10
2023-08-14T02:36:08.896Z,23.10
2023-08-14T02:38:37.166Z,23.10
2023-08-14T02:41:07.703Z,23.00
2023-08-14T02:43:35.223Z,23.60
2023-08-14T02:46:02.655Z,23.60
2023-08-14T02:48:30.075Z,23.00
2023-08-14T02:50:57.659Z,23.50
2023-08-14T02:53:25.124Z,22.90
2023-08-14T02:55:53.787Z,23.00
2023-08-14T02:58:21.277Z,22.90
2023-08-14T03:00:49.817Z,22.90
2023-08-14T03:03:17.309Z,23.50
2023-08-14T03:05:45.691Z,23.50
2023-08-14T03:08:13.563Z,23.40
2023-08-14T03:10:40.966Z,22.90
2023-08-14T03:13:09.849Z,22.90
2023-08-14T03:15:37.279Z,23.50
2023-08-14T03:18:04.967Z,22.80
2023-08-14T03:20:32.634Z,22.90
2023-08-14T03:23:00.062Z,23.10
2023-08-14T03:25:27.517Z,23.40
2023-08-14T03:27:55.527Z,22.80
2023-08-14T03:30:23.208Z,22.80
2023-08-14T03:32:51.668Z,22.80
2023-08-14T03:35:19.636Z,22.90
2023-08-14T03:37:47.089Z,23.40
2023-08-14T03:40:15.917Z,22.80
2023-08-14T03:42:43.662Z,22.90
2023-08-14T03:45:11.887Z,22.80
2023-08-14T03:47:39.367Z,22.90
2023-08-14T03:50:07.340Z,22.80
2023-08-14T03:52:34.714Z,22.90
2023-08-14T03:55:02.172Z,22.90
2023-08-14T03:57:31.611Z,22.90
2023-08-14T03:59:58.955Z,23.50
2023-08-14T04:02:26.436Z,23.50
2023-08-14T04:04:53.803Z,23.30
2023-08-14T04:07:21.226Z,23.60
2023-08-14T04:09:48.662Z,23.00
2023-08-14T04:12:16.241Z,23.40
2023-08-14T04:14:45.149Z,23.50
2023-08-14T04:17:12.523Z,23.00
2023-08-14T04:19:39.910Z,23.60
2023-08-14T04:22:07.358Z,23.00
2023-08-14T04:24:34.808Z,23.10
2023-08-14T04:27:02.337Z,23.00
2023-08-14T04:29:29.857Z,23.40
2023-08-14T04:31:57.460Z,22.90
2023-08-14T04:34:24.921Z,23.50
2023-08-14T04:36:53.829Z,23.00
2023-08-14T04:39:21.278Z,23.20
2023-08-14T04:41:48.957Z,23.20
2023-08-14T04:44:17.031Z,23.50
2023-08-14T04:46:59.090Z,22.90
2023-08-14T04:49:30.186Z,22.90
2023-08-14T04:51:58.739Z,22.90
2023-08-14T04:54:27.698Z,22.90
2023-08-14T04:56:55.286Z,23.50
2023-08-14T04:59:22.939Z,22.90
2023-08-14T05:01:50.635Z,22.90
2023-08-14T05:04:20.403Z,22.80
2023-08-14T05:06:48.027Z,23.20
2023-08-14T05:09:26.367Z,23.10
2023-08-14T05:11:55.618Z,23.40
2023-08-14T05:14:23.182Z,22.80
2023-08-14T05:16:52.068Z,22.50
2023-08-14T05:19:19.549Z,23.40
2023-08-14T05:21:47.590Z,23.40
2023-08-14T05:24:16.495Z,23.40
2023-08-14T05:26:44.103Z,22.80
2023-08-14T05:29:15.072Z,22.80
2023-08-14T05:31:42.671Z,23.40
2023-08-14T05:34:10.174Z,23.40
2023-08-14T05:36:38.164Z,22.80
2023-08-14T05:39:07.070Z,23.40
2023-08-14T05:42:05.237Z,23.30
2023-08-14T05:44:33.059Z,22.40
2023-08-14T05:47:01.039Z,22.90
2023-08-14T05:49:28.800Z,23.50
2023-08-14T05:51:56.300Z,23.30
2023-08-14T05:54:24.523Z,23.40
2023-08-14T05:56:52.197Z,23.60
2023-08-14T05:59:19.578Z,23.00
2023-08-14T06:01:47.134Z,23.10
2023-08-14T06:04:14.698Z,23.10
2023-08-14T06:06:42.821Z,23.80
2023-08-14T06:09:10.444Z,23.20
2023-08-14T06:11:37.851Z,23.30
2023-08-14T06:14:05.439Z,23.60
2023-08-14T06:16:32.865Z,23.40
2023-08-14T06:19:00.312Z,23.40
2023-08-14T06:21:27.679Z,23.40
2023-08-14T06:23:55.116Z,23.50
2023-08-14T06:26:22.927Z,23.60
2023-08-14T06:28:50.325Z,23.60
2023-08-14T06:31:17.840Z,23.60
2023-08-14T06:33:45.827Z,23.70
2023-08-14T06:36:13.733Z,23.70
2023-08-14T06:38:41.031Z,24.40
2023-08-14T06:41:08.327Z,23.90
2023-08-14T06:43:36.075Z,24.00
2023-08-14T06:46:03.478Z,24.80
2023-08-14T06:48:31.488Z,24.70
2023-08-14T06:51:00.316Z,24.90
2023-08-14T06:53:27.829Z,24.40
2023-08-14T06:55:56.659Z,25.10
2023-08-14T06:58:24.382Z,25.20
2023-08-14T07:00:51.953Z,25.10
2023-08-14T07:03:19.453Z,24.90
2023-08-14T07:05:46.884Z,25.10
2023-08-14T07:08:14.266Z,25.30
2023-08-14T07:10:41.700Z,25.50
2023-08-14T07:13:09.193Z,25.60
2023-08-14T07:15:38.316Z,25.70
2023-08-14T07:18:07.995Z,26.20
2023-08-14T07:20:35.456Z,25.80
2023-08-14T07:23:03.649Z,25.80
2023-08-14T07:25:30.995Z,25.80
2023-08-14T07:27:58.418Z,26.40
2023-08-14T07:30:25.990Z,25.80
2023-08-14T07:32:53.500Z,26.00
2023-08-14T07:35:21.156Z,26.10
2023-08-14T07:37:48.518Z,26.30
2023-08-14T07:40:16.353Z,27.00
2023-08-14T07:42:43.675Z,26.60
2023-08-14T07:45:11.260Z,27.20
2023-08-14T07:47:38.975Z,27.00
2023-08-14T07:50:07.487Z,27.30
2023-08-14T07:52:35.708Z,27.30
2023-08-14T07:55:03.856Z,27.40
2023-08-14T07:57:31.878Z,27.60
2023-08-14T07:59:59.292Z,27.70
2023-08-14T08:02:28.707Z,27.90
2023-08-14T08:04:57.025Z,28.10
2023-08-14T08:07:25.862Z,28.20
2023-08-14T08:09:54.293Z,28.30
2023-08-14T08:12:23.388Z,28.50
2023-08-14T08:14:51.205Z,28.60
2023-08-14T08:17:19.035Z,28.70
2023-08-14T08:19:47.734Z,29.10
2023-08-14T08:22:15.294Z,28.90
2023-08-14T08:24:42.797Z,28.90
2023-08-14T08:27:11.443Z,29.00
2023-08-14T08:29:39.350Z,29.10
2023-08-14T08:32:06.875Z,29.20
2023-08-14T08:34:34.270Z,29.30
2023-08-14T08:37:01.638Z,30.00
2023-08-14T08:39:29.031Z,29.50
2023-08-14T08:41:58.383Z,29.60
2023-08-14T08:44:35.468Z,30.10
2023-08-14T08:47:09.327Z,29.80
2023-08-14T08:49:37.463Z,29.90
2023-08-14T08:52:05.812Z,30.10
2023-08-14T08:54:33.426Z,30.10
2023-08-14T08:57:01.390Z,30.20
2023-08-14T08:59:28.980Z,30.20
2023-08-14T09:01:58.233Z,30.20
2023-08-14T09:04:27.239Z,30.10
2023-08-14T09:06:54.843Z,30.10
2023-08-14T09:09:23.008Z,30.10
2023-08-14T09:11:50.468Z,30.10
2023-08-14T09:14:18.698Z,30.10
2023-08-14T09:16:46.513Z,30.20
2023-08-14T09:19:15.982Z,30.40
2023-08-14T09:21:45.787Z,30.50
2023-08-14T09:24:15.726Z,31.10
2023-08-14T09:26:46.791Z,30.70
2023-08-14T09:31:47.747Z,30.90
2023-08-14T09:34:19.393Z,31.50
2023-08-14T09:36:50.594Z,31.10
2023-08-14T09:39:19.189Z,31.10
2023-08-14T09:41:50.203Z,31.20
2023-08-14T09:44:21.858Z,31.20
2023-08-14T09:46:52.756Z,31.40
2023-08-14T09:49:20.653Z,31.30
2023-08-14T09:51:58.307Z,31.40
2023-08-14T09:54:34.424Z,31.30
2023-08-14T09:57:09.877Z,31.70
2023-08-14T09:59:38.149Z,31.50
2023-08-14T10:02:16.335Z,31.60
2023-08-14T10:04:47.904Z,31.70
2023-08-14T10:07:16.853Z,31.60
2023-08-14T10:09:51.565Z,31.60
2023-08-14T10:12:23.771Z,31.60
2023-08-14T10:15:19.007Z,31.60
2023-08-14T10:17:58.588Z,32.00
2023-08-14T10:22:57.699Z,31.70
2023-08-14T10:25:25.891Z,31.70
2023-08-14T10:27:53.799Z,31.70
2023-08-14T10:30:26.587Z,32.20
2023-08-14T10:32:55.547Z,31.80
2023-08-14T10:35:24.937Z,31.80
2023-08-14T10:38:04.971Z,31.90
2023-08-14T10:40:37.748Z,32.00
2023-08-14T10:43:07.976Z,32.00
2023-08-14T10:45:36.433Z,32.00
2023-08-14T10:48:09.954Z,32.00
2023-08-14T10:50:37.398Z,32.00
2023-08-14T10:53:06.458Z,32.60
2023-08-14T10:55:42.504Z,32.00
2023-08-14T10:58:32.866Z,31.90
2023-08-14T11:01:05.928Z,31.90
2023-08-14T11:03:34.663Z,31.80
2023-08-14T11:06:02.341Z,31.70
2023-08-14T11:08:31.519Z,31.60
2023-08-14T11:10:59.494Z,31.60
2023-08-14T11:13:32.450Z,31.90
2023-08-14T11:16:00.764Z,31.70
2023-08-14T11:18:28.801Z,31.80
2023-08-14T11:21:10.493Z,32.00
2023-08-14T11:23:46.420Z,32.30
2023-08-14T11:26:13.769Z,32.00
2023-08-14T11:28:41.145Z,32.60
2023-08-14T11:31:09.128Z,32.20
2023-08-14T11:33:37.025Z,32.20
2023-08-14T11:36:11.654Z,32.30
2023-08-14T11:38:41.426Z,32.30
2023-08-14T11:41:09.087Z,32.40
2023-08-14T11:43:39.321Z,32.50
2023-08-14T11:46:07.511Z,32.60
2023-08-14T11:48:35.014Z,32.50
2023-08-14T11:51:03.726Z,32.90
2023-08-14T11:53:31.233Z,32.60
2023-08-14T11:55:58.848Z,33.20
2023-08-14T11:58:26.399Z,32.60
2023-08-14T12:00:53.829Z,32.70
2023-08-14T12:03:21.410Z,32.70
2023-08-14T12:06:00.229Z,32.70
2023-08-14T12:08:31.554Z,32.90
2023-08-14T12:10:59.071Z,32.70
2023-08-14T12:13:26.988Z,32.70
2023-08-14T12:15:54.411Z,32.90
2023-08-14T12:18:25.351Z,32.80
2023-08-14T12:20:55.994Z,32.60
2023-08-14T12:23:24.852Z,32.70
2023-08-14T12:25:53.382Z,32.70
2023-08-14T12:28:21.717Z,32.70
2023-08-14T12:30:50.363Z,32.70
2023-08-14T12:33:18.203Z,33.20
2023-08-14T12:35:45.700Z,32.60
2023-08-14T12:38:13.114Z,32.60
2023-08-14T12:40:40.657Z,32.60
2023-08-14T12:43:08.165Z,32.50
2023-08-14T12:45:36.055Z,32.50
2023-08-14T12:48:03.668Z,32.50
2023-08-14T12:50:31.178Z,32.50
2023-08-14T12:52:58.607Z,32.70
2023-08-14T12:55:26.051Z,33.10
2023-08-14T12:57:53.854Z,32.60
2023-08-14T13:00:22.841Z,32.60
2023-08-14T13:02:50.342Z,32.50
2023-08-14T13:05:17.820Z,33.00
2023-08-14T13:07:45.614Z,32.50
2023-08-14T13:10:12.968Z,32.50
2023-08-14T13:12:40.344Z,32.60
2023-08-14T13:15:08.366Z,32.60
2023-08-14T13:17:35.943Z,32.60
2023-08-14T13:20:03.782Z,32.60
2023-08-14T13:22:31.145Z,32.50
2023-08-14T13:24:58.501Z,32.40
2023-08-14T13:27:25.886Z,32.50
2023-08-14T13:29:53.247Z,32.90
2023-08-14T13:32:21.067Z,32.90
2023-08-14T13:34:48.801Z,32.30
2023-08-14T13:37:16.443Z,32.90
2023-08-14T13:39:44.849Z,32.30
2023-08-14T13:42:12.182Z,32.30
2023-08-14T13:44:39.681Z,32.30
2023-08-14T13:47:08.666Z,32.30
2023-08-14T13:49:36.131Z,32.50
2023-08-14T13:52:03.696Z,32.20
2023-08-14T13:54:31.108Z,32.20
2023-08-14T13:56:58.791Z,32.20
2023-08-14T13:59:26.180Z,32.20
2023-08-14T14:01:53.579Z,32.20
2023-08-14T14:04:22.329Z,32.20
2023-08-14T14:06:49.883Z,32.60
2023-08-14T14:09:18.251Z,32.60
2023-08-14T14:11:46.102Z,32.70
2023-08-14T14:14:14.957Z,32.50
2023-08-14T14:16:53.427Z,32.30
2023-08-14T14:19:20.860Z,32.30
2023-08-14T14:21:48.398Z,32.40
2023-08-14T14:24:15.801Z,32.70
2023-08-14T14:26:43.256Z,32.50
2023-08-14T14:29:10.727Z,32.40
2023-08-14T14:31:38.102Z,32.40
2023-08-14T14:34:06.137Z,32.30
2023-08-14T14:36:33.936Z,32.30
2023-08-14T14:39:02.403Z,32.80
2023-08-14T14:41:29.920Z,32.20
2023-08-14T14:43:57.373Z,32.30
2023-08-14T14:46:25.505Z,32.30
2023-08-14T14:48:53.156Z,32.30
2023-08-14T14:51:20.515Z,32.80
2023-08-14T14:53:47.882Z,32.30
2023-08-14T14:56:15.636Z,32.40
2023-08-14T14:58:43.122Z,32.40
2023-08-14T15:01:10.974Z,32.40
2023-08-14T15:03:38.668Z,32.80
2023-08-14T15:06:06.535Z,32.30
2023-08-14T15:08:34.294Z,32.30
2023-08-14T15:11:01.689Z,32.30
2023-08-14T15:13:29.212Z,32.90
2023-08-14T15:15:56.926Z,32.60
2023-08-14T15:18:24.365Z,32.40
2023-08-14T15:20:51.770Z,32.40
2023-08-14T15:23:19.294Z,32.50
2023-08-14T15:25:46.645Z,32.70
2023-08-14T15:28:14.099Z,33.10
2023-08-14T15:30:42.368Z,32.50
2023-08-14T15:33:10.816Z,33.00
2023-08-14T15:35:38.481Z,32.50
2023-08-14T15:38:06.060Z,32.60
2023-08-14T15:40:33.842Z,32.50
2023-08-14T15:43:01.382Z,32.70
2023-08-14T15:45:28.985Z,32.50
2023-08-14T15:47:59.371Z,32.50
2023-08-14T15:50:27.412Z,32.90
2023-08-14T15:52:54.840Z,32.50
2023-08-14T15:55:22.303Z,32.50
2023-08-14T15:57:49.604Z,32.50
2023-08-14T16:00:18.999Z,32.70
2023-08-14T16:02:46.447Z,32.50
2023-08-14T16:05:14.278Z,32.50
2023-08-14T16:07:41.598Z,32.60
2023-08-14T16:10:09.062Z,32.30
2023-08-14T16:12:36.428Z,32.30
2023-08-14T16:15:04.210Z,32.30
2023-08-14T16:17:31.708Z,32.20
2023-08-14T16:19:59.047Z,32.20
2023-08-14T16:22:26.820Z,32.10
2023-08-14T16:24:54.373Z,32.10
2023-08-14T16:27:21.986Z,32.20
2023-08-14T16:29:49.695Z,32.00
2023-08-14T16:32:17.381Z,32.00
2023-08-14T16:34:47.143Z,32.00
2023-08-14T16:37:14.637Z,32.40
2023-08-14T16:39:42.193Z,32.40
2023-08-14T16:42:09.522Z,31.80
2023-08-14T16:44:37.070Z,32.00
2023-08-14T16:47:05.174Z,32.10
2023-08-14T16:49:32.837Z,31.70
2023-08-14T16:52:00.206Z,31.70
2023-08-14T16:54:27.648Z,31.60
2023-08-14T16:56:55.409Z,32.20
2023-08-14T16:59:22.801Z,31.60
2023-08-14T17:01:50.134Z,31.50
2023-08-14T17:04:17.727Z,31.50
2023-08-14T17:06:45.247Z,31.60
2023-08-14T17:09:14.920Z,32.00
2023-08-14T17:11:42.542Z,31.60
2023-08-14T17:14:09.986Z,32.10
2023-08-14T17:16:37.825Z,32.00
2023-08-14T17:19:05.429Z,31.60
2023-08-14T17:21:33.485Z,31.50
2023-08-14T17:24:00.806Z,32.00
2023-08-14T17:26:46.817Z,31.60
2023-08-14T17:29:14.519Z,31.80
2023-08-14T17:31:41.941Z,32.10
2023-08-14T17:34:09.319Z,32.10
2023-08-14T17:36:36.916Z,31.70
2023-08-14T17:39:06.024Z,31.50
2023-08-14T17:41:34.785Z,31.60
2023-08-14T17:44:02.249Z,31.50
2023-08-14T17:46:29.628Z,31.50
2023-08-14T17:48:57.069Z,31.40
2023-08-14T17:51:24.483Z,31.40
2023-08-14T17:53:53.232Z,31.40
2023-08-14T17:56:21.634Z,31.30
2023-08-14T17:58:49.219Z,31.30
2023-08-14T18:01:16.623Z,31.60
2023-08-14T18:03:44.287Z,31.20
2023-08-14T18:06:12.470Z,31.20
2023-08-14T18:08:40.150Z,31.20
2023-08-14T18:11:07.576Z,31.40
2023-08-14T18:13:34.957Z,31.10
2023-08-14T18:16:02.387Z,31.10
2023-08-14T18:18:29.992Z,31.40
2023-08-14T18:20:57.488Z,31.50
2023-08-14T18:23:25.194Z,31.00
2023-08-14T18:25:54.569Z,31.20
2023-08-14T18:28:23.969Z,31.00
2023-08-14T18:30:56.105Z,30.90
2023-08-14T18:33:24.169Z,31.20
2023-08-14T18:35:51.547Z,30.80
2023-08-14T18:38:20.435Z,30.80
2023-08-14T18:40:49.883Z,30.70
2023-08-14T18:43:17.244Z,30.70
2023-08-14T18:45:44.758Z,30.70
2023-08-14T18:48:12.294Z,30.80
2023-08-14T18:50:39.802Z,30.70
2023-08-14T18:53:07.905Z,30.70
2023-08-14T18:55:39.379Z,30.70
2023-08-14T18:58:07.548Z,30.30
2023-08-14T19:00:36.356Z,30.40
2023-08-14T19:03:04.079Z,30.20
2023-08-14T19:05:31.864Z,30.10
2023-08-14T19:07:59.663Z,30.10
2023-08-14T19:10:27.748Z,30.10
2023-08-14T19:12:55.386Z,30.10
2023-08-14T19:15:22.818Z,29.90
2023-08-14T19:17:50.391Z,29.90
2023-08-14T19:20:17.986Z,29.90
2023-08-14T19:22:45.332Z,29.70
2023-08-14T19:25:13.121Z,29.70
2023-08-14T19:27:41.682Z,29.60
2023-08-14T19:30:09.280Z,29.80
2023-08-14T19:32:36.627Z,29.50
2023-08-14T19:35:05.381Z,29.40
2023-08-14T19:37:33.063Z,29.30
2023-08-14T19:40:00.941Z,29.30
2023-08-14T19:42:28.261Z,29.20
2023-08-14T19:44:55.626Z,29.20
2023-08-14T19:47:23.101Z,29.20
2023-08-14T19:49:51.077Z,29.00
2023-08-14T19:52:19.878Z,29.00
2023-08-14T19:54:47.237Z,29.20
2023-08-14T19:57:14.556Z,28.90
2023-08-14T19:59:41.976Z,28.80
2023-08-14T20:02:09.298Z,28.80
2023-08-14T20:04:37.065Z,28.70
2023-08-14T20:07:04.703Z,29.00
2023-08-14T20:09:32.196Z,28.60
2023-08-14T20:11:59.676Z,28.50
2023-08-14T20:14:27.383Z,28.50
2023-08-14T20:16:54.763Z,28.40
2023-08-14T20:19:22.200Z,28.40
2023-08-14T20:21:49.882Z,28.30
2023-08-14T20:24:17.374Z,28.30
2023-08-14T20:26:44.761Z,28.20
2023-08-14T20:29:12.210Z,28.20
2023-08-14T20:31:39.972Z,28.30
2023-08-14T20:34:08.700Z,28.10
2023-08-14T20:36:36.863Z,28.30
2023-08-14T20:39:04.724Z,28.00
2023-08-14T20:41:32.160Z,27.90
2023-08-14T20:44:00.512Z,27.90
2023-08-14T20:46:29.297Z,28.10
2023-08-14T20:48:56.927Z,27.80
2023-08-14T20:51:24.412Z,27.80
2023-08-14T20:53:51.790Z,27.80
2023-08-14T20:56:19.266Z,27.70
2023-08-14T20:58:46.759Z,27.70
2023-08-14T21:01:18.146Z,27.70
2023-08-14T21:03:45.630Z,27.60
2023-08-14T21:06:13.131Z,27.60
2023-08-14T21:08:40.664Z,27.80
2023-08-14T21:11:08.540Z,27.50
2023-08-14T21:13:38.549Z,27.50
2023-08-14T21:16:06.013Z,27.50
2023-08-14T21:18:34.780Z,27.40
2023-08-14T21:21:02.344Z,27.60
2023-08-14T21:23:29.826Z,27.40
2023-08-14T21:25:57.987Z,27.40
2023-08-14T21:28:25.475Z,27.30
2023-08-14T21:31:02.384Z,27.60
2023-08-14T21:33:29.916Z,27.20
2023-08-14T21:35:59.727Z,27.40
2023-08-14T21:38:27.210Z,26.90
2023-08-14T21:40:56.664Z,27.10
2023-08-14T21:43:25.703Z,27.00
2023-08-14T21:45:53.365Z,27.00
2023-08-14T21:48:20.862Z,27.00
2023-08-14T21:50:48.606Z,27.00
2023-08-14T21:53:16.184Z,27.10
2023-08-14T21:55:43.698Z,27.20
2023-08-14T21:58:11.169Z,26.90
2023-08-14T22:00:39.192Z,26.80
2023-08-14T22:03:07.175Z,26.80
2023-08-14T22:05:34.805Z,26.80
2023-08-14T22:08:02.307Z,26.80
2023-08-14T22:10:29.675Z,26.70
2023-08-14T22:12:57.069Z,26.90
2023-08-14T22:15:29.861Z,26.70
2023-08-14T22:18:08.040Z,26.70
2023-08-14T22:20:36.705Z,26.90
2023-08-14T22:23:04.293Z,26.50
2023-08-14T22:25:31.630Z,26.50
2023-08-14T22:27:59.435Z,26.50
2023-08-14T22:30:27.030Z,26.50
2023-08-14T22:32:54.824Z,26.40
2023-08-14T22:35:22.616Z,26.40
2023-08-14T22:37:58.211Z,26.40
2023-08-14T22:40:26.251Z,26.10
2023-08-14T22:42:54.193Z,26.30
2023-08-14T22:45:21.991Z,26.30
2023-08-14T22:47:49.702Z,26.40
2023-08-14T22:50:17.394Z,26.20
2023-08-14T22:52:44.879Z,26.20
2023-08-14T22:55:12.322Z,26.20
2023-08-14T22:57:41.898Z,26.10
2023-08-14T23:00:13.609Z,26.20
2023-08-14T23:02:41.099Z,25.80
2023-08-14T23:05:09.363Z,26.30
2023-08-14T23:07:36.863Z,26.00
2023-08-14T23:10:04.976Z,26.00
2023-08-14T23:12:32.367Z,25.90
2023-08-14T23:15:00.062Z,25.90
2023-08-14T23:17:27.749Z,26.20
2023-08-14T23:19:55.341Z,26.10
2023-08-14T23:22:23.144Z,26.00
2023-08-14T23:24:50.682Z,25.80
2023-08-14T23:27:18.757Z,26.10
2023-08-14T23:29:46.761Z,25.70
2023-08-14T23:32:14.216Z,25.70
2023-08-14T23:34:41.657Z,26.00
2023-08-14T23:37:09.037Z,25.90
2023-08-14T23:39:36.364Z,25.90
2023-08-14T23:42:03.809Z,25.60
2023-08-14T23:44:31.438Z,25.60
2023-08-14T23:46:58.805Z,25.60
2023-08-14T23:49:26.174Z,25.50
2023-08-14T23:51:53.533Z,25.70
2023-08-14T23:54:21.016Z,25.70
2023-08-14T23:56:48.387Z,25.50
2023-08-14T23:59:15.763Z,25.50
